Time;durP1;ratioP1;P1;durP2;ratioP2;P2;SDS_P1;SDS_P2;PMS_P1;PMS_P2;Temp;Humidity;BMP_temperature;BMP_pressure;BME280_temperature;BME280_humidity;BME280_pressure;Samples;Min_cycle;Max_cycle;Signal;HPM_P1;HPM_P2
2022/09/19 00:01:26;;;;;;;4.28;1.10;;;;;;;;;;5007967;28;20101;-74
2022/09/19 00:03:53;;;;;;;5.70;1.90;;;;;;;;;;4997949;28;20053;-74
2022/09/19 00:06:20;;;;;;;7.88;1.88;;;;;;;;;;5004944;28;20038;-74
2022/09/19 00:08:46;;;;;;;5.22;1.88;;;;;;;;;;5000323;28;20496;-74
2022/09/19 00:11:14;;;;;;;8.95;1.98;;;;;;;;;;5010025;28;20435;-74
2022/09/19 00:13:45;;;;;;;6.47;1.33;;;;;;;;;;5008718;28;20038;-74
2022/09/19 00:16:18;;;;;;;4.30;1.42;;;;;;;;;;4998222;28;20088;-73
2022/09/19 00:18:44;;;;;;;4.78;1.45;;;;;;;;;;5004990;28;20387;-74
2022/09/19 00:21:10;;;;;;;4.40;1.48;;;;;;;;;;5010257;28;20038;-74
2022/09/19 00:26:38;;;;;;;8.13;3.53;;;;;;;;;;4926501;29;20615;-74
2022/09/19 00:29:05;;;;;;;5.28;2.38;;;;;;;;;;4983202;28;20049;-74
2022/09/19 00:31:31;;;;;;;7.82;2.60;;;;;;;;;;5010378;28;20040;-74
2022/09/19 00:33:57;;;;;;;5.43;2.20;;;;;;;;;;5007446;28;20530;-74
2022/09/19 00:36:23;;;;;;;6.60;1.48;;;;;;;;;;5003045;28;20499;-74
2022/09/19 00:38:50;;;;;;;9.05;2.97;;;;;;;;;;5005729;28;20748;-74
2022/09/19 00:41:21;;;;;;;9.98;3.97;;;;;;;;;;5004691;28;20547;-74
2022/09/19 00:43:47;;;;;;;7.93;3.63;;;;;;;;;;5007500;28;20030;-74
2022/09/19 00:46:13;;;;;;;10.32;3.78;;;;;;;;;;5004926;28;20049;-74
2022/09/19 00:48:41;;;;;;;11.43;4.40;;;;;;;;;;5002136;28;20038;-74
2022/09/19 00:51:09;;;;;;;8.75;4.50;;;;;;;;;;5007191;28;20112;-74
2022/09/19 00:53:36;;;;;;;10.93;4.68;;;;;;;;;;5002509;28;20757;-74
2022/09/19 00:56:04;;;;;;;10.95;5.00;;;;;;;;;;5003632;28;20053;-73
2022/09/19 00:58:38;;;;;;;9.80;5.28;;;;;;;;;;5000478;28;20093;-74
2022/09/19 01:01:04;;;;;;;8.95;4.43;;;;;;;;;;5002620;28;20112;-74
2022/09/19 01:03:31;;;;;;;8.05;3.88;;;;;;;;;;4995153;28;20478;-74
2022/09/19 01:06:04;;;;;;;7.60;2.97;;;;;;;;;;5007794;28;20042;-74
2022/09/19 01:08:39;;;;;;;7.03;2.40;;;;;;;;;;4996647;28;20057;-74
2022/09/19 01:11:24;;;;;;;5.95;1.77;;;;;;;;;;5002773;28;20478;-74
2022/09/19 01:13:54;;;;;;;6.30;1.92;;;;;;;;;;5002387;28;20105;-74
2022/09/19 01:16:42;;;;;;;4.03;1.52;;;;;;;;;;5005806;28;20121;-74
2022/09/19 01:19:27;;;;;;;4.57;1.27;;;;;;;;;;4976036;28;20034;-74
2022/09/19 01:22:16;;;;;;;4.40;1.20;;;;;;;;;;5003663;28;20164;-74
2022/09/19 01:24:47;;;;;;;6.05;1.40;;;;;;;;;;5001863;28;20026;-74
2022/09/19 01:27:31;;;;;;;4.65;1.42;;;;;;;;;;5005390;28;20065;-74
2022/09/19 01:30:01;;;;;;;5.18;1.63;;;;;;;;;;5002565;28;20045;-74
2022/09/19 01:32:31;;;;;;;5.00;1.60;;;;;;;;;;5003354;28;20120;-74
2022/09/19 01:34:59;;;;;;;5.93;1.50;;;;;;;;;;4983489;28;20031;-74
2022/09/19 01:37:31;;;;;;;7.50;1.80;;;;;;;;;;5006360;28;20947;-74
2022/09/19 01:39:59;;;;;;;5.82;1.65;;;;;;;;;;4998968;28;20129;-74
2022/09/19 01:42:25;;;;;;;6.82;1.60;;;;;;;;;;4990559;28;20041;-74
2022/09/19 01:44:52;;;;;;;4.75;1.80;;;;;;;;;;5005840;28;20037;-74
2022/09/19 01:47:24;;;;;;;6.47;1.70;;;;;;;;;;5002489;28;20103;-74
2022/09/19 01:49:50;;;;;;;4.97;1.73;;;;;;;;;;5006783;28;20038;-74
2022/09/19 01:52:25;;;;;;;6.70;2.30;;;;;;;;;;5009516;28;20100;-74
2022/09/19 01:55:10;;;;;;;7.70;1.77;;;;;;;;;;4991536;28;20521;-74
2022/09/19 01:57:50;;;;;;;3.17;1.20;;;;;;;;;;4994484;28;20061;-74
2022/09/19 02:00:18;;;;;;;5.53;1.20;;;;;;;;;;5008385;28;20061;-74
2022/09/19 02:02:44;;;;;;;5.45;1.23;;;;;;;;;;5002592;28;20129;-74
2022/09/19 02:05:13;;;;;;;3.90;1.20;;;;;;;;;;5000703;28;20392;-73
2022/09/19 02:07:43;;;;;;;6.13;1.38;;;;;;;;;;5004724;28;20364;-73
2022/09/19 02:10:14;;;;;;;5.63;1.60;;;;;;;;;;4997332;28;20026;-73
2022/09/19 02:12:42;;;;;;;4.38;1.40;;;;;;;;;;5007084;28;20048;-74
2022/09/19 02:15:11;;;;;;;3.63;1.17;;;;;;;;;;5005257;28;20032;-74
2022/09/19 02:17:44;;;;;;;4.80;1.15;;;;;;;;;;5005939;28;20026;-73
2022/09/19 02:20:13;;;;;;;6.40;1.45;;;;;;;;;;5004066;28;20372;-74
2022/09/19 02:22:47;;;;;;;5.75;1.38;;;;;;;;;;4999831;28;20443;-73
2022/09/19 02:25:17;;;;;;;9.13;1.60;;;;;;;;;;4998822;28;20032;-74
2022/09/19 02:27:47;;;;;;;5.80;1.27;;;;;;;;;;5007843;28;20132;-74
2022/09/19 02:30:13;;;;;;;5.35;1.30;;;;;;;;;;5002544;28;20133;-74
2022/09/19 02:32:46;;;;;;;4.65;1.33;;;;;;;;;;4989018;28;20041;-74
2022/09/19 02:35:13;;;;;;;8.38;1.80;;;;;;;;;;4990298;28;20810;-74
2022/09/19 02:37:44;;;;;;;5.28;1.35;;;;;;;;;;4982587;28;20034;-73
2022/09/19 02:40:44;;;;;;;3.78;1.73;;;;;;;;;;5001912;28;20029;-74
2022/09/19 02:43:30;;;;;;;8.05;1.60;;;;;;;;;;4947541;28;20046;-74
2022/09/19 02:46:00;;;;;;;7.13;1.70;;;;;;;;;;4991425;28;20050;-73
2022/09/19 02:48:29;;;;;;;6.63;1.60;;;;;;;;;;5002097;28;20030;-73
2022/09/19 02:51:01;;;;;;;6.00;1.50;;;;;;;;;;5005743;28;20042;-74
2022/09/19 02:53:29;;;;;;;;;;;;;;;;;;5004420;28;20160;-73
2022/09/19 02:55:57;;;;;;;5.15;2.05;;;;;;;;;;4978884;28;19921;-74
2022/09/19 02:58:24;;;;;;;5.13;1.50;;;;;;;;;;5004361;28;20037;-73
2022/09/19 03:00:52;;;;;;;6.78;1.60;;;;;;;;;;5007192;28;20049;-74
2022/09/19 03:06:26;;;;;;;11.18;2.08;;;;;;;;;;5001928;28;20064;-74
2022/09/19 03:08:54;;;;;;;7.65;1.70;;;;;;;;;;5004546;28;20022;-73
2022/09/19 03:11:22;;;;;;;6.30;1.98;;;;;;;;;;4997646;28;20049;-74
2022/09/19 03:13:48;;;;;;;8.32;1.83;;;;;;;;;;5000498;28;20022;-74
2022/09/19 03:16:17;;;;;;;6.32;2.00;;;;;;;;;;5008021;28;20044;-73
2022/09/19 03:18:46;;;;;;;6.63;1.58;;;;;;;;;;5010172;28;20021;-74
2022/09/19 03:21:12;;;;;;;8.60;1.60;;;;;;;;;;5015077;28;20037;-74
2022/09/19 03:23:44;;;;;;;7.78;2.10;;;;;;;;;;5003100;28;20101;-73
2022/09/19 03:26:12;;;;;;;5.70;1.70;;;;;;;;;;5016206;28;20088;-74
2022/09/19 03:28:38;;;;;;;5.82;1.88;;;;;;;;;;5012464;28;20026;-74
2022/09/19 03:31:04;;;;;;;6.03;1.98;;;;;;;;;;5007573;28;20069;-74
2022/09/19 03:33:30;;;;;;;6.75;2.28;;;;;;;;;;5006770;28;20034;-74
2022/09/19 03:35:57;;;;;;;5.00;1.48;;;;;;;;;;4999015;28;20073;-73
2022/09/19 03:38:26;;;;;;;4.47;1.77;;;;;;;;;;4994801;28;20045;-74
2022/09/19 03:40:52;;;;;;;9.13;1.55;;;;;;;;;;4985768;28;20038;-73
2022/09/19 03:43:20;;;;;;;5.10;1.50;;;;;;;;;;5007774;28;20033;-73
2022/09/19 03:45:46;;;;;;;7.97;1.75;;;;;;;;;;5008229;28;20030;-74
2022/09/19 03:48:12;;;;;;;7.80;1.65;;;;;;;;;;5007896;28;20129;-74
2022/09/19 03:50:38;;;;;;;7.20;1.52;;;;;;;;;;5006394;28;20101;-73
2022/09/19 03:53:06;;;;;;;4.25;1.58;;;;;;;;;;4999920;28;20041;-73
2022/09/19 03:55:32;;;;;;;3.67;1.35;;;;;;;;;;5007838;28;20164;-74
2022/09/19 03:57:58;;;;;;;7.60;1.70;;;;;;;;;;5012634;28;20128;-73
2022/09/19 04:00:24;;;;;;;7.53;1.55;;;;;;;;;;5004175;28;20930;-74
2022/09/19 04:02:52;;;;;;;4.72;1.23;;;;;;;;;;5008102;28;20037;-73
2022/09/19 04:05:18;;;;;;;5.75;1.63;;;;;;;;;;4990143;28;20034;-73
2022/09/19 04:07:44;;;;;;;5.32;1.30;;;;;;;;;;5007836;28;20060;-73
2022/09/19 04:10:10;;;;;;;3.78;1.23;;;;;;;;;;4991111;28;20762;-73
2022/09/19 04:12:36;;;;;;;5.53;1.33;;;;;;;;;;5005877;28;20168;-74
2022/09/19 04:15:02;;;;;;;5.63;1.65;;;;;;;;;;5004955;28;20037;-73
2022/09/19 04:17:28;;;;;;;4.30;0.98;;;;;;;;;;4999614;28;20050;-74
2022/09/19 04:19:54;;;;;;;5.75;1.45;;;;;;;;;;4999716;28;20030;-74
2022/09/19 04:22:21;;;;;;;8.20;1.90;;;;;;;;;;5004235;28;20041;-73
2022/09/19 04:24:48;;;;;;;8.30;2.13;;;;;;;;;;4991200;28;20030;-74
2022/09/19 04:27:14;;;;;;;5.55;1.50;;;;;;;;;;5001815;28;20054;-73
2022/09/19 04:29:43;;;;;;;5.55;1.60;;;;;;;;;;5003587;28;20029;-73
2022/09/19 04:32:09;;;;;;;12.77;1.77;;;;;;;;;;5003259;28;20812;-73
2022/09/19 04:34:36;;;;;;;10.43;2.65;;;;;;;;;;5000113;28;20073;-74
2022/09/19 04:37:06;;;;;;;20.65;11.15;;;;;;;;;;5007190;28;20156;-73
2022/09/19 04:39:32;;;;;;;32.40;18.38;;;;;;;;;;4998536;28;20049;-73
2022/09/19 04:41:59;;;;;;;24.48;11.20;;;;;;;;;;4986310;28;20026;-74
2022/09/19 04:44:29;;;;;;;20.45;11.00;;;;;;;;;;5004868;28;20519;-74
2022/09/19 04:46:56;;;;;;;17.98;7.32;;;;;;;;;;5000381;28;20561;-73
2022/09/19 04:49:22;;;;;;;12.55;5.20;;;;;;;;;;5001140;28;20057;-73
2022/09/19 04:51:48;;;;;;;11.38;3.35;;;;;;;;;;5005838;28;20066;-73
2022/09/19 04:54:14;;;;;;;10.63;2.60;;;;;;;;;;5006478;28;20423;-73
2022/09/19 04:56:44;;;;;;;8.20;2.78;;;;;;;;;;4989154;28;20034;-73
2022/09/19 04:59:10;;;;;;;10.95;1.98;;;;;;;;;;5007222;28;20478;-73
2022/09/19 05:01:36;;;;;;;8.18;1.98;;;;;;;;;;4993412;28;20049;-73
2022/09/19 05:04:04;;;;;;;7.85;1.80;;;;;;;;;;5008858;28;20486;-73
2022/09/19 05:06:30;;;;;;;8.27;2.00;;;;;;;;;;5006544;28;20037;-73
2022/09/19 05:08:57;;;;;;;12.57;2.03;;;;;;;;;;5004895;28;20038;-73
2022/09/19 05:11:24;;;;;;;7.55;1.80;;;;;;;;;;5013645;28;20132;-74
2022/09/19 05:13:52;;;;;;;17.70;3.25;;;;;;;;;;5007139;28;20491;-74
2022/09/19 05:16:18;;;;;;;6.95;1.83;;;;;;;;;;5009366;28;20065;-74
2022/09/19 05:18:45;;;;;;;12.30;2.25;;;;;;;;;;5009139;28;20030;-73
2022/09/19 05:21:12;;;;;;;8.77;2.40;;;;;;;;;;5006806;28;20764;-74
2022/09/19 05:23:39;;;;;;;7.93;2.22;;;;;;;;;;5003135;28;20023;-73
2022/09/19 05:26:06;;;;;;;13.35;3.70;;;;;;;;;;5004294;28;20054;-74
2022/09/19 05:28:32;;;;;;;6.88;3.22;;;;;;;;;;5007284;28;20726;-74
2022/09/19 05:30:59;;;;;;;12.07;2.80;;;;;;;;;;5005321;28;20475;-74
2022/09/19 05:33:28;;;;;;;10.05;3.33;;;;;;;;;;5003446;28;20818;-74
2022/09/19 05:35:55;;;;;;;8.70;3.22;;;;;;;;;;5005172;28;20120;-74
2022/09/19 05:38:22;;;;;;;12.75;3.10;;;;;;;;;;5003471;28;20852;-74
2022/09/19 05:40:51;;;;;;;11.93;2.67;;;;;;;;;;5008000;28;20031;-74
2022/09/19 05:43:17;;;;;;;14.23;4.00;;;;;;;;;;5003189;28;20029;-74
2022/09/19 05:45:43;;;;;;;14.15;3.58;;;;;;;;;;5000904;28;20032;-74
2022/09/19 05:48:09;;;;;;;11.63;3.15;;;;;;;;;;5006172;28;20112;-74
2022/09/19 05:50:35;;;;;;;9.57;2.97;;;;;;;;;;5004265;28;20017;-74
2022/09/19 05:55:46;;;;;;;8.75;2.13;;;;;;;;;;5002229;28;20136;-74
2022/09/19 05:58:13;;;;;;;10.73;3.65;;;;;;;;;;5005013;28;20045;-74
2022/09/19 06:00:39;;;;;;;12.80;3.20;;;;;;;;;;5004765;28;20091;-73
2022/09/19 06:03:06;;;;;;;12.70;3.05;;;;;;;;;;5001089;28;20026;-73
2022/09/19 06:05:38;;;;;;;15.02;3.72;;;;;;;;;;5004248;28;20041;-74
2022/09/19 06:08:07;;;;;;;14.93;3.33;;;;;;;;;;5004375;28;20495;-74
2022/09/19 06:10:38;;;;;;;17.45;4.22;;;;;;;;;;5003822;28;20025;-73
2022/09/19 06:13:04;;;;;;;14.45;3.50;;;;;;;;;;5006997;28;20033;-73
2022/09/19 06:15:30;;;;;;;13.55;3.45;;;;;;;;;;5002234;28;20474;-73
2022/09/19 06:17:57;;;;;;;12.15;3.50;;;;;;;;;;4982243;28;20117;-74
2022/09/19 06:20:23;;;;;;;20.08;3.30;;;;;;;;;;5001363;28;20606;-73
2022/09/19 06:22:51;;;;;;;14.15;2.88;;;;;;;;;;5008227;28;20044;-73
2022/09/19 06:25:18;;;;;;;15.07;3.13;;;;;;;;;;5008916;28;20038;-73
2022/09/19 06:27:52;;;;;;;11.07;3.17;;;;;;;;;;5005602;28;20053;-73
2022/09/19 06:30:18;;;;;;;10.63;2.92;;;;;;;;;;5002411;28;20076;-74
2022/09/19 06:32:44;;;;;;;7.30;2.70;;;;;;;;;;5004763;28;20406;-74
2022/09/19 06:35:10;;;;;;;17.10;3.63;;;;;;;;;;5004734;28;20030;-74
2022/09/19 06:37:36;;;;;;;10.52;3.08;;;;;;;;;;4999639;28;20030;-74
2022/09/19 06:40:02;;;;;;;15.25;3.13;;;;;;;;;;5000831;28;20033;-74
2022/09/19 06:42:28;;;;;;;10.50;2.47;;;;;;;;;;4999571;28;20113;-74
2022/09/19 06:44:54;;;;;;;9.32;2.53;;;;;;;;;;5001864;28;20482;-74
2022/09/19 06:47:20;;;;;;;10.98;2.33;;;;;;;;;;5000430;28;20072;-74
2022/09/19 06:49:46;;;;;;;13.35;2.50;;;;;;;;;;4986652;28;20037;-73
2022/09/19 06:52:13;;;;;;;10.85;3.30;;;;;;;;;;5000358;28;20057;-74
2022/09/19 06:54:39;;;;;;;10.65;3.45;;;;;;;;;;5003016;28;20061;-74
2022/09/19 06:57:05;;;;;;;10.20;2.28;;;;;;;;;;5003280;28;20380;-74
2022/09/19 06:59:31;;;;;;;8.30;2.00;;;;;;;;;;5006624;28;20060;-74
2022/09/19 07:01:59;;;;;;;6.22;1.80;;;;;;;;;;5002373;28;20117;-74
2022/09/19 07:04:25;;;;;;;7.20;2.03;;;;;;;;;;5005905;28;20034;-74
2022/09/19 07:06:51;;;;;;;8.93;2.47;;;;;;;;;;5000441;28;20041;-74
2022/09/19 07:09:18;;;;;;;9.65;2.88;;;;;;;;;;5003455;28;20034;-74
2022/09/19 07:11:44;;;;;;;7.72;2.35;;;;;;;;;;4998691;28;20076;-74
2022/09/19 07:14:11;;;;;;;11.88;2.10;;;;;;;;;;5000515;28;20033;-74
2022/09/19 07:16:37;;;;;;;11.55;2.30;;;;;;;;;;5008549;28;20041;-74
2022/09/19 07:19:03;;;;;;;8.88;2.13;;;;;;;;;;5002675;28;20092;-74
2022/09/19 07:21:29;;;;;;;13.40;2.88;;;;;;;;;;5003478;28;20104;-74
2022/09/19 07:23:56;;;;;;;9.70;2.55;;;;;;;;;;5003981;28;20462;-74
2022/09/19 07:26:22;;;;;;;11.05;2.75;;;;;;;;;;4998553;28;20058;-74
2022/09/19 07:28:48;;;;;;;6.93;1.83;;;;;;;;;;5001980;28;20498;-75
2022/09/19 07:31:14;;;;;;;8.07;1.50;;;;;;;;;;4998908;28;20042;-75
2022/09/19 07:33:40;;;;;;;7.43;1.73;;;;;;;;;;5003693;28;20169;-74
2022/09/19 07:36:06;;;;;;;4.95;1.55;;;;;;;;;;5007521;28;20088;-75
2022/09/19 07:38:33;;;;;;;6.75;2.00;;;;;;;;;;5007808;28;20091;-74
2022/09/19 07:41:02;;;;;;;10.13;1.70;;;;;;;;;;4998378;28;20076;-75
2022/09/19 07:43:28;;;;;;;5.45;1.92;;;;;;;;;;5001979;28;20052;-74
2022/09/19 07:45:54;;;;;;;6.47;2.17;;;;;;;;;;5000912;28;20041;-75
2022/09/19 07:48:20;;;;;;;7.68;1.52;;;;;;;;;;5005149;28;20038;-75
2022/09/19 07:50:49;;;;;;;5.35;1.70;;;;;;;;;;5002790;28;20030;-74
2022/09/19 07:53:17;;;;;;;8.05;2.10;;;;;;;;;;5011329;28;20044;-74
2022/09/19 07:55:43;;;;;;;7.50;2.00;;;;;;;;;;4996132;28;20022;-75
2022/09/19 07:58:11;;;;;;;9.05;2.10;;;;;;;;;;5001513;28;20030;-75
2022/09/19 08:00:37;;;;;;;11.05;2.30;;;;;;;;;;4998171;28;20602;-75
2022/09/19 08:03:05;;;;;;;6.60;1.80;;;;;;;;;;5005525;28;20030;-75
2022/09/19 08:05:37;;;;;;;6.47;1.70;;;;;;;;;;5009778;28;20794;-75
2022/09/19 08:08:03;;;;;;;12.07;2.33;;;;;;;;;;5000166;28;20484;-75
2022/09/19 08:10:30;;;;;;;8.32;1.70;;;;;;;;;;5004962;28;20675;-75
2022/09/19 08:13:00;;;;;;;9.35;1.60;;;;;;;;;;5003624;28;20038;-75
2022/09/19 08:15:26;;;;;;;5.40;1.52;;;;;;;;;;4999765;28;20038;-75
2022/09/19 08:17:57;;;;;;;5.25;1.58;;;;;;;;;;5007921;28;20069;-74
2022/09/19 08:20:23;;;;;;;5.70;1.70;;;;;;;;;;5008617;28;20022;-75
2022/09/19 08:22:49;;;;;;;4.38;1.38;;;;;;;;;;5007033;28;20877;-75
2022/09/19 08:25:16;;;;;;;8.02;1.45;;;;;;;;;;5011066;28;20029;-75
2022/09/19 08:27:45;;;;;;;7.45;1.50;;;;;;;;;;5007563;28;20546;-75
2022/09/19 08:30:11;;;;;;;9.23;1.98;;;;;;;;;;5006126;28;20460;-75
2022/09/19 08:32:37;;;;;;;8.00;1.70;;;;;;;;;;5005112;28;20042;-75
2022/09/19 08:35:04;;;;;;;11.80;2.00;;;;;;;;;;5007159;28;20038;-75
2022/09/19 08:37:31;;;;;;;6.65;1.60;;;;;;;;;;5005874;28;20118;-75
2022/09/19 08:40:15;;;;;;;7.43;1.80;;;;;;;;;;5010068;28;20025;-75
2022/09/19 08:42:47;;;;;;;7.25;1.90;;;;;;;;;;5003144;28;20041;-75
2022/09/19 08:45:28;;;;;;;4.90;1.23;;;;;;;;;;5006988;28;20082;-75
2022/09/19 08:47:54;;;;;;;6.63;1.52;;;;;;;;;;5005422;28;20419;-76
2022/09/19 08:50:24;;;;;;;7.03;1.23;;;;;;;;;;5004099;28;20031;-75
2022/09/19 08:52:52;;;;;;;6.82;1.63;;;;;;;;;;5003321;28;20038;-75
2022/09/19 08:55:21;;;;;;;4.55;1.42;;;;;;;;;;5004344;28;20026;-75
2022/09/19 08:57:55;;;;;;;7.65;1.35;;;;;;;;;;5003291;28;20965;-75
2022/09/19 09:00:22;;;;;;;4.43;1.40;;;;;;;;;;5004737;28;20455;-75
2022/09/19 09:02:51;;;;;;;5.88;1.63;;;;;;;;;;5005285;28;20041;-75
2022/09/19 09:05:24;;;;;;;8.10;1.40;;;;;;;;;;5004268;28;20030;-75
2022/09/19 09:07:50;;;;;;;7.60;1.42;;;;;;;;;;5003855;28;20041;-75
2022/09/19 09:10:21;;;;;;;4.80;1.55;;;;;;;;;;5005241;28;20112;-75
2022/09/19 09:12:55;;;;;;;5.53;1.45;;;;;;;;;;5001223;28;22017;-76
2022/09/19 09:15:28;;;;;;;6.00;1.35;;;;;;;;;;4999980;28;20109;-75
2022/09/19 09:18:12;;;;;;;5.07;1.70;;;;;;;;;;5001279;28;20062;-75
2022/09/19 09:20:58;;;;;;;4.78;1.30;;;;;;;;;;5007013;28;20036;-76
2022/09/19 09:23:30;;;;;;;5.25;1.27;;;;;;;;;;5005626;28;20034;-75
2022/09/19 09:26:07;;;;;;;8.98;1.38;;;;;;;;;;5002279;28;20042;-75
2022/09/19 09:28:45;;;;;;;5.30;1.67;;;;;;;;;;5007154;28;20041;-74
2022/09/19 09:31:11;;;;;;;6.68;1.60;;;;;;;;;;5000012;28;20041;-74
2022/09/19 09:33:40;;;;;;;6.35;1.75;;;;;;;;;;5004987;28;20030;-74
2022/09/19 09:36:11;;;;;;;7.68;1.80;;;;;;;;;;5001960;28;20361;-75
2022/09/19 09:38:49;;;;;;;5.00;1.20;;;;;;;;;;5007207;28;20029;-76
2022/09/19 09:44:07;;;;;;;6.17;1.07;;;;;;;;;;5001904;28;20033;-76
2022/09/19 09:46:53;;;;;;;3.58;0.63;;;;;;;;;;5007727;28;20034;-76
2022/09/19 09:49:27;;;;;;;3.28;0.80;;;;;;;;;;5003293;28;20117;-76
2022/09/19 09:51:55;;;;;;;3.42;0.77;;;;;;;;;;5002314;28;20061;-76
2022/09/19 09:57:22;;;;;;;6.90;0.85;;;;;;;;;;5004696;28;20055;-75
2022/09/19 10:05:57;;;;;;;5.55;0.88;;;;;;;;;;5003829;28;20041;-76
2022/09/19 10:08:27;;;;;;;6.43;1.23;;;;;;;;;;5002452;28;20443;-76
2022/09/19 10:10:58;;;;;;;8.93;1.20;;;;;;;;;;5008291;28;20030;-76
2022/09/19 10:13:25;;;;;;;3.65;0.98;;;;;;;;;;5005625;28;20040;-76
2022/09/19 10:15:54;;;;;;;2.97;1.10;;;;;;;;;;5004299;28;20486;-76
2022/09/19 10:18:23;;;;;;;3.65;1.10;;;;;;;;;;5006443;28;20068;-76
2022/09/19 10:20:51;;;;;;;4.20;0.80;;;;;;;;;;5009708;28;20029;-76
2022/09/19 10:23:23;;;;;;;4.53;0.90;;;;;;;;;;5007775;28;20980;-76
2022/09/19 10:25:50;;;;;;;4.72;0.82;;;;;;;;;;5003858;28;20630;-76
2022/09/19 10:28:23;;;;;;;5.57;0.93;;;;;;;;;;4993343;28;20048;-76
2022/09/19 10:30:56;;;;;;;4.90;0.90;;;;;;;;;;4997688;28;20060;-76
2022/09/19 10:33:42;;;;;;;3.85;0.80;;;;;;;;;;5001620;28;20034;-76
2022/09/19 10:36:25;;;;;;;3.63;0.70;;;;;;;;;;5009356;28;20033;-76
2022/09/19 10:38:54;;;;;;;;;;;;;;;;;;5003997;28;20033;-76
2022/09/19 10:41:21;;;;;;;3.95;0.63;;;;;;;;;;5006719;28;19917;-76
2022/09/19 10:43:49;;;;;;;3.53;0.73;;;;;;;;;;5003540;28;20368;-75
2022/09/19 10:46:23;;;;;;;4.50;0.85;;;;;;;;;;5004796;28;20994;-76
2022/09/19 10:48:54;;;;;;;4.22;0.73;;;;;;;;;;5006077;28;20029;-76
2022/09/19 10:51:20;;;;;;;3.88;0.90;;;;;;;;;;5005392;28;20030;-76
2022/09/19 10:53:48;;;;;;;3.80;0.80;;;;;;;;;;5012780;28;20064;-76
2022/09/19 10:56:28;;;;;;;3.33;0.60;;;;;;;;;;5000617;28;20129;-76
2022/09/19 10:59:18;;;;;;;2.58;0.60;;;;;;;;;;5001345;28;20025;-76
2022/09/19 11:02:03;;;;;;;5.38;1.15;;;;;;;;;;5004512;28;20080;-76
2022/09/19 11:04:29;;;;;;;5.38;0.80;;;;;;;;;;5004296;28;20961;-75
2022/09/19 11:06:59;;;;;;;7.28;1.20;;;;;;;;;;5000016;28;20124;-75
2022/09/19 11:09:36;;;;;;;3.63;0.80;;;;;;;;;;5005661;28;20068;-74
2022/09/19 11:12:21;;;;;;;5.15;0.60;;;;;;;;;;5004713;28;20930;-73
2022/09/19 11:14:48;;;;;;;6.05;0.90;;;;;;;;;;5006616;28;20683;-73
2022/09/19 11:17:37;;;;;;;4.25;0.80;;;;;;;;;;5009294;28;20045;-74
2022/09/19 11:20:16;;;;;;;2.40;0.60;;;;;;;;;;4993844;28;20046;-74
2022/09/19 11:22:45;;;;;;;2.85;0.60;;;;;;;;;;5003473;28;20057;-74
2022/09/19 11:25:35;;;;;;;6.07;1.08;;;;;;;;;;5001102;28;20033;-74
2022/09/19 11:28:01;;;;;;;8.02;0.90;;;;;;;;;;4999735;28;20054;-74
2022/09/19 11:30:28;;;;;;;4.30;0.88;;;;;;;;;;5003006;28;20537;-74
2022/09/19 11:32:59;;;;;;;3.17;0.77;;;;;;;;;;5010039;28;20037;-74
2022/09/19 11:35:31;;;;;;;3.75;0.85;;;;;;;;;;5001792;28;20557;-73
2022/09/19 11:38:00;;;;;;;2.92;0.80;;;;;;;;;;5002212;28;20103;-74
2022/09/19 11:40:35;;;;;;;4.38;0.73;;;;;;;;;;5008807;28;20037;-74
2022/09/19 11:43:07;;;;;;;2.95;0.70;;;;;;;;;;5003500;28;20042;-74
2022/09/19 11:46:03;;;;;;;3.55;0.80;;;;;;;;;;5004099;28;20034;-74
2022/09/19 11:48:31;;;;;;;3.95;0.80;;;;;;;;;;4976524;28;20068;-74
2022/09/19 11:51:02;;;;;;;5.25;0.95;;;;;;;;;;5002153;28;20034;-73
2022/09/19 11:53:28;;;;;;;5.37;0.80;;;;;;;;;;5002470;28;20029;-74
2022/09/19 11:56:00;;;;;;;4.68;0.85;;;;;;;;;;5002611;28;20300;-74
2022/09/19 11:58:27;;;;;;;;;;;;;;;;;;5006138;28;20026;-74
2022/09/19 12:00:56;;;;;;;4.38;1.02;;;;;;;;;;5009494;28;20477;-74
2022/09/19 12:03:34;;;;;;;6.22;0.70;;;;;;;;;;5009795;28;20243;-74
2022/09/19 12:06:18;;;;;;;2.72;0.63;;;;;;;;;;5008039;28;20092;-73
2022/09/19 12:08:59;;;;;;;3.03;0.73;;;;;;;;;;5005882;28;20112;-74
2022/09/19 12:11:29;;;;;;;4.53;1.00;;;;;;;;;;5006124;28;20048;-74
2022/09/19 12:13:59;;;;;;;2.58;0.60;;;;;;;;;;5001599;28;20518;-74
2022/09/19 12:16:32;;;;;;;3.40;0.75;;;;;;;;;;5007564;28;20033;-74
2022/09/19 12:19:02;;;;;;;4.10;0.82;;;;;;;;;;5004896;28;20034;-74
2022/09/19 12:21:32;;;;;;;5.53;0.90;;;;;;;;;;5004997;28;20034;-74
2022/09/19 12:26:49;;;;;;;3.75;0.60;;;;;;;;;;5005815;28;20060;-74
2022/09/19 12:29:21;;;;;;;3.83;0.82;;;;;;;;;;5008762;28;20109;-74
2022/09/19 12:31:50;;;;;;;5.32;0.85;;;;;;;;;;5008640;28;20033;-74
2022/09/19 12:34:29;;;;;;;2.22;0.70;;;;;;;;;;5008696;28;20034;-75
2022/09/19 12:37:07;;;;;;;2.75;0.60;;;;;;;;;;5004592;28;20038;-74
2022/09/19 12:39:39;;;;;;;4.18;0.70;;;;;;;;;;5005137;28;20061;-74
2022/09/19 12:42:10;;;;;;;6.45;0.70;;;;;;;;;;5005083;28;20034;-74
2022/09/19 12:44:37;;;;;;;4.75;0.90;;;;;;;;;;5002849;28;20468;-74
2022/09/19 12:47:11;;;;;;;5.60;0.77;;;;;;;;;;5009252;28;20049;-74
2022/09/19 12:49:56;;;;;;;7.20;0.80;;;;;;;;;;5004965;28;20688;-74
2022/09/19 12:52:34;;;;;;;5.78;0.88;;;;;;;;;;5006456;28;20129;-74
2022/09/19 12:55:19;;;;;;;10.77;0.95;;;;;;;;;;5011832;28;20026;-74
2022/09/19 12:57:50;;;;;;;3.53;0.60;;;;;;;;;;5004046;28;20037;-76
2022/09/19 13:00:18;;;;;;;3.75;0.70;;;;;;;;;;5009338;28;20022;-75
2022/09/19 13:02:43;;;;;;;4.38;0.77;;;;;;;;;;5005841;28;20378;-75
2022/09/19 13:05:25;;;;;;;2.83;0.80;;;;;;;;;;5013260;28;20021;-75
2022/09/19 13:07:51;;;;;;;7.45;0.80;;;;;;;;;;4988321;28;20637;-75
2022/09/19 13:10:20;;;;;;;4.05;1.05;;;;;;;;;;5001664;28;20033;-75
2022/09/19 13:12:57;;;;;;;11.82;1.00;;;;;;;;;;4998556;28;20041;-75
2022/09/19 13:15:32;;;;;;;2.58;0.50;;;;;;;;;;5004471;28;20057;-75
2022/09/19 13:23:32;;;;;;;2.88;0.70;;;;;;;;;;5007267;28;20142;-75
2022/09/19 13:26:17;;;;;;;1.73;0.50;;;;;;;;;;4993241;28;20538;-75
2022/09/19 13:28:46;;;;;;;6.47;0.90;;;;;;;;;;4999601;28;20109;-75
2022/09/19 13:31:12;;;;;;;5.28;0.73;;;;;;;;;;5012170;28;20034;-75
2022/09/19 13:33:48;;;;;;;4.05;0.70;;;;;;;;;;5010242;28;20045;-75
2022/09/19 13:36:17;;;;;;;2.47;0.60;;;;;;;;;;5010851;28;20037;-75
2022/09/19 13:38:48;;;;;;;2.67;0.40;;;;;;;;;;4999433;28;20026;-75
2022/09/19 13:41:17;;;;;;;5.70;0.75;;;;;;;;;;5007832;28;20034;-75
2022/09/19 13:44:03;;;;;;;4.53;0.70;;;;;;;;;;5008708;28;20034;-75
2022/09/19 13:46:32;;;;;;;6.82;0.80;;;;;;;;;;5000409;28;20026;-75
2022/09/19 13:49:08;;;;;;;2.95;0.70;;;;;;;;;;5006384;28;20069;-75
2022/09/19 13:51:39;;;;;;;4.95;0.82;;;;;;;;;;5019865;28;20025;-75
2022/09/19 13:54:16;;;;;;;3.40;0.70;;;;;;;;;;5007994;28;20044;-75
2022/09/19 13:56:43;;;;;;;2.83;0.50;;;;;;;;;;5009158;28;20038;-75
2022/09/19 13:59:29;;;;;;;4.20;0.90;;;;;;;;;;5006595;28;20038;-75
2022/09/19 14:02:05;;;;;;;3.13;0.82;;;;;;;;;;5008033;28;20022;-75
2022/09/19 14:04:53;;;;;;;2.95;0.60;;;;;;;;;;5010173;28;20026;-75
2022/09/19 14:07:29;;;;;;;5.13;0.60;;;;;;;;;;5009677;28;20392;-75
2022/09/19 14:09:57;;;;;;;3.13;0.80;;;;;;;;;;5009555;28;20030;-75
2022/09/19 14:12:35;;;;;;;3.33;0.70;;;;;;;;;;5011515;28;20034;-75
2022/09/19 14:15:02;;;;;;;3.72;0.75;;;;;;;;;;5002603;28;20041;-75
2022/09/19 14:17:33;;;;;;;4.10;0.70;;;;;;;;;;4998556;28;20056;-75
2022/09/19 14:20:01;;;;;;;2.13;0.80;;;;;;;;;;5010629;28;20072;-77
2022/09/19 14:22:34;;;;;;;2.00;0.65;;;;;;;;;;5007480;28;20030;-76
2022/09/19 14:25:18;;;;;;;1.65;0.50;;;;;;;;;;5000319;28;20064;-76
2022/09/19 14:27:50;;;;;;;2.17;0.50;;;;;;;;;;5000617;28;20052;-76
2022/09/19 14:30:16;;;;;;;;;;;;;;;;;;5004648;28;20026;-76
2022/09/19 14:32:52;;;;;;;4.55;0.70;;;;;;;;;;4997686;28;20281;-77
2022/09/19 14:35:18;;;;;;;1.98;0.60;;;;;;;;;;5011653;28;20365;-76
2022/09/19 14:37:50;;;;;;;3.45;0.68;;;;;;;;;;5013967;28;20030;-76
2022/09/19 14:40:29;;;;;;;3.40;0.50;;;;;;;;;;5008919;28;20092;-77
2022/09/19 14:43:09;;;;;;;2.85;0.60;;;;;;;;;;4993102;28;20743;-76
2022/09/19 14:45:59;;;;;;;3.60;0.60;;;;;;;;;;5006317;28;20049;-76
2022/09/19 14:48:50;;;;;;;2.80;0.60;;;;;;;;;;4945993;28;20051;-76
2022/09/19 14:51:17;;;;;;;1.73;0.50;;;;;;;;;;4967529;28;20074;-76
2022/09/19 14:53:43;;;;;;;4.78;0.70;;;;;;;;;;5022241;28;20057;-77
2022/09/19 14:56:13;;;;;;;1.95;0.40;;;;;;;;;;5011944;28;20034;-76
2022/09/19 14:58:39;;;;;;;3.70;1.08;;;;;;;;;;5004956;28;20026;-76
2022/09/19 15:01:38;;;;;;;2.75;0.70;;;;;;;;;;5009710;28;20065;-76
2022/09/19 15:04:16;;;;;;;3.35;0.73;;;;;;;;;;4953024;28;20041;-76
2022/09/19 15:06:46;;;;;;;2.42;0.70;;;;;;;;;;5006523;28;20026;-76
2022/09/19 15:09:23;;;;;;;2.42;0.65;;;;;;;;;;5010446;28;20038;-76
2022/09/19 15:11:54;;;;;;;3.85;0.35;;;;;;;;;;5013368;28;20033;-76
2022/09/19 15:14:22;;;;;;;3.93;0.53;;;;;;;;;;5017149;28;20029;-77
2022/09/19 15:16:50;;;;;;;3.08;0.60;;;;;;;;;;5013966;28;20301;-76
2022/09/19 15:19:17;;;;;;;2.05;0.52;;;;;;;;;;5016668;28;20019;-76
2022/09/19 15:21:46;;;;;;;3.90;0.60;;;;;;;;;;5011077;28;20069;-76
2022/09/19 15:24:13;;;;;;;3.92;0.52;;;;;;;;;;5012790;28;20058;-76
2022/09/19 15:26:46;;;;;;;5.88;0.82;;;;;;;;;;5017469;28;20065;-77
2022/09/19 15:29:36;;;;;;;1.40;0.40;;;;;;;;;;5016727;28;20061;-77